메인 페이지
METAR-TAF:

METAR-TAF

공항 :

말레, 몰디브

말레 국제공항

위도: 04-12N, 경도: 073-32E, 고도: 2m

현재 날씨관측

예보는 1 시간 6분 전, 00:00시(UTC)에 발표되었습니다.
동북동8kt
온도 28°C
습도 74%
기압 1009 hPa
시정 10km 이상
고도 1800ft 상공 구름 보통

METAR: VRMM 180000Z 06008KT 9999 SCT018 28/23 Q1009 NOSIG

시각: 06:06 (01:06 UTC)

예보

예보는 2 시간 6분 전, 23:00시(UTC)에 발표되었습니다.
예보 대상 시간: 18일 00시부터 19일 06시까지 (UTC)
동북동10kt
시정 10km 이상
고도 1800ft 상공 구름 조금
일시적
18일 00시부터 18일 06시까지 (UTC)
시정: 7000m
고도 1800ft 상공 구름 조금, 적란운.
약한소나기

TAF: VRMM 172300Z 1800/1906 07010KT 9999 FEW018 TEMPO 1800/1806 7000 -SHRA FEW018CB

4,000개 이상의 공항 관측 자료 및 예보 (METAR 및 TAF 보고).

지도상에서 검색 가능한 기상관측소가 노란 점과 빨간 점으로 표시되어 있습니다.

기상관측소 명을 보려면 표시 위로 마우스를 이동하세요.

날씨 관측과 예보를 보려면 클릭하세요.

지도 변경 : 확대하려면 엑스 표시가 있는 녹색 버튼, 축소하려면 빼기 표시가 있는 녹색 버튼, 다음 페이지의 지도를 보려면 녹색 화살표를 클릭하세요.


METAR-TAF: